ADDS METAR Data INFO
IDs: Format: Raw Decoded Include TAF

Data at: 2344 UTC 15 Dec 2017

K3N8 152335Z AUTO 13006KT 10SM BKN075 OVC085 M06/M08 A2966 RMK AO2 T10621083
K3N8 152315Z AUTO 12004KT 10SM SCT011 SCT049 OVC085 M06/M08 A2966 RMK AO2 T10631082
K3N8 152255Z AUTO 12004KT 10SM -SN SCT040 OVC050 M06/M08 A2966 RMK AO2 T10631082
K3N8 152235Z AUTO 13004KT 7SM -SN SCT011 OVC038 M06/M08 A2967 RMK AO2 T10651084
K3N8 152215Z AUTO 14005KT 10SM -SN OVC011 M06/M08 A2967 RMK AO2 T10631085
K3N8 152155Z AUTO 15004KT 10SM OVC011 M06/M09 A2968 RMK AO2 T10651087
K3N8 152135Z AUTO 16004KT 10SM -SN OVC013 M06/M09 A2967 RMK AO2 T10641089
K3N8 152115Z AUTO 17004KT 10SM OVC015 M06/M09 A2968 RMK AO2 T10651092
K3N8 152055Z AUTO 16005KT 10SM OVC015 M07/M09 A2969 RMK AO2 T10661093
K3N8 152035Z AUTO 17004KT 10SM OVC015 M07/M09 A2970 RMK AO2 T10691094
K3N8 152015Z AUTO 14006KT 10SM OVC015 M07/M10 A2970 RMK AO2 T10711098
K3N8 151955Z AUTO 15004KT 10SM OVC015 M07/M10 A2970 RMK AO2 T10701096
K3N8 151935Z AUTO 14005KT 10SM OVC017 M07/M10 A2971 RMK AO2 T10751101
K3N8 151915Z AUTO 14005KT 10SM OVC017 M08/M10 A2972 RMK AO2 T10761102
K3N8 151855Z AUTO 14006KT 10SM OVC019 M08/M10 A2973 RMK AO2 T10801105
K3N8 151835Z AUTO 15006KT 10SM OVC021 M08/M10 A2975 RMK AO2 T10801104
K3N8 151815Z AUTO 15006KT 10SM OVC023 M08/M10 A2975 RMK AO2 T10831105
K3N8 151755Z AUTO 17004KT 10SM OVC025 M08/M10 A2978 RMK AO2 T10851105 11085 21139
K3N8 151735Z AUTO 16005KT 10SM OVC025 M09/M10 A2980 RMK AO2 T10861105
K3N8 151715Z AUTO 15004KT 10SM OVC027 M09/M11 A2980 RMK AO2 T10901111
K3N8 151655Z AUTO 16003KT 10SM OVC029 M09/M12 A2981 RMK AO2 T10951117
K3N8 151635Z AUTO 13004KT 10SM OVC031 M10/M12 A2983 RMK AO2 T10981118
K3N8 151615Z AUTO 13003KT 10SM OVC031 M10/M12 A2983 RMK AO2 T11021120
K3N8 151555Z AUTO 14003KT 10SM OVC033 M11/M12 A2984 RMK AO2 T11061121
K3N8 151535Z AUTO 14003KT 10SM OVC033 M11/M13 A2982 RMK AO2 T11111126
K3N8 151515Z AUTO 00000KT 10SM OVC037 M11/M13 A2982 RMK AO2 T11151130
K3N8 151455Z AUTO 15003KT 10SM -SN BKN039 M12/M14 A2983 RMK AO2 T11231136
K3N8 151435Z AUTO 12003KT 10SM -SN CLR M12/M14 A2983 RMK AO2 T11251138
K3N8 151415Z AUTO 10003KT 10SM SCT100 M14/M15 A2985 RMK AO2 T11361151
K3N8 151355Z AUTO 00000KT 10SM SCT047 SCT100 M12/M13 A2985 RMK AO2 T11211135
K3N8 151335Z AUTO 25003KT 10SM CLR M12/M13 A2986 RMK AO2 T11211135
K3N8 151315Z AUTO 00000KT 10SM CLR M12/M14 A2987 RMK AO2 T11251138
K3N8 151255Z AUTO 00000KT 10SM BKN120 M12/M13 A2985 RMK AO2 T11171131
K3N8 151235Z AUTO 00000KT 10SM BKN120 M12/M13 A2986 RMK AO2 T11201133
K3N8 151215Z AUTO 00000KT 10SM SCT095 SCT120 M12/M13 A2987 RMK AO2 T11221135
K3N8 151155Z AUTO 00000KT 10SM BKN095 BKN120 M12/M13 A2987 RMK AO2 T11221134 11081 21128
K3N8 151135Z AUTO 00000KT 10SM SCT085 M13/M14 A2988 RMK AO2 T11261139
K3N8 151115Z AUTO 32004KT 10SM SCT085 M13/M14 A2989 RMK AO2 T11261139
K3N8 151055Z AUTO 00000KT 10SM OVC085 M12/M14 A2989 RMK AO2 T11251138
K3N8 151035Z AUTO 34003KT 10SM OVC085 M11/M12 A2990 RMK AO2 T11111125
K3N8 151015Z AUTO 35003KT 10SM OVC085 M11/M12 A2991 RMK AO2 T11101125
K3N8 150955Z AUTO 36003KT 10SM SCT024 OVC085 M11/M13 A2991 RMK AO2 T11131128
K3N8 150935Z AUTO 33004KT 10SM BKN024 OVC085 M11/M13 A2992 RMK AO2 T11151130
K3N8 150915Z AUTO 34005KT 10SM BKN022 OVC085 M11/M12 A2993 RMK AO2 T11121125
K3N8 150855Z AUTO 32005KT 10SM SCT020 OVC095 M11/M13 A2993 RMK AO2 T11141130
K3N8 150830Z AUTO 35007KT 10SM BKN018 OVC095 M09/M11 A2993 RMK AO2 T10951109
K3N8 150815Z AUTO 35007KT 10SM SCT018 OVC095 M10/M11 A2992 RMK AO2 T10991113
K3N8 150755Z AUTO 34007KT 10SM SCT026 SCT030 OVC095 M10/M11 A2993 RMK AO2 T10961111
K3N8 150735Z AUTO 34005KT 10SM SCT010 OVC024 M08/M10 A2993 RMK AO2 T10851097
K3N8 150715Z AUTO 36006KT 10SM BKN007 OVC012 M08/M09 A2993 RMK AO2 T10821093
K3N8 150655Z AUTO 34004KT 10SM OVC007 M08/M09 A2994 RMK AO2 T10821092
K3N8 150635Z AUTO 33005KT 10SM BKN007 OVC011 M08/M09 A2994 RMK AO2 T10821092
K3N8 150615Z AUTO 33006KT 10SM OVC007 M08/M09 A2994 RMK AO2 T10811091
K3N8 150555Z AUTO 34005KT 10SM OVC007 M08/M09 A2995 RMK AO2 T10821091 11082 21093 410731110
K3N8 150535Z AUTO 31003KT 10SM OVC005 M08/M09 A2996 RMK AO2 T10851094
K3N8 150515Z AUTO 30005KT 7SM BKN005 BKN009 OVC015 M08/M09 A2996 RMK AO2 T10851095
K3N8 150455Z AUTO 29006KT 7SM SCT007 OVC015 M09/M09 A2997 RMK AO2 T10871095
K3N8 150435Z AUTO 29004KT 7SM OVC015 M09/M10 A2997 RMK AO2 T10901098
K3N8 150415Z AUTO 00000KT 7SM OVC013 M09/M10 A2998 RMK AO2 T10911100
K3N8 150355Z AUTO 00000KT 10SM OVC013 M09/M10 A2999 RMK AO2 T10911103
K3N8 150335Z AUTO 00000KT 10SM BKN015 OVC022 M09/M10 A2998 RMK AO2 T10931105
K3N8 150315Z AUTO 00000KT 7SM -SN BKN020 BKN029 OVC034 M09/M11 A2998 RMK AO2 T10931106
K3N8 150255Z AUTO 00000KT 2SM -SN BKN020 OVC032 M09/M11 A2999 RMK AO2 T10931106
K3N8 150235Z AUTO 25003KT 2SM -SN SCT015 OVC020 M09/M11 A3000 RMK AO2 T10931107
K3N8 150215Z AUTO 25003KT 5SM -SN BKN018 OVC030 M09/M11 A3000 RMK AO2 T10921109
K3N8 150155Z AUTO 00000KT 10SM OVC018 M09/M11 A3000 RMK AO2 T10921110
K3N8 150140Z AUTO 34004KT 10SM -SN BKN021 OVC028 M09/M11 A3002 RMK AO2 T10921111
K3N8 150110Z AUTO 34006KT 10SM -SN OVC018 M09/M11 A3001 RMK AO2 T10921111
K3N8 150055Z AUTO 34004KT 10SM -SN OVC020 M09/M11 A3001 RMK AO2 T10921111
K3N8 150035Z AUTO 33006KT 10SM -SN BKN023 OVC045 M09/M11 A3002 RMK AO2 T10931111
K3N8 150015Z AUTO 33008KT 5SM -SN SCT017 BKN041 OVC047 M09/M11 A3002 RMK AO2 T10931112
K3N8 142355Z AUTO 34005KT 7SM -SN SCT017 BKN039 OVC049 M09/M11 A3002 RMK AO2 T10911110 11073 21091
K3N8 142335Z AUTO 34008KT 10SM -SN SCT019 SCT043 OVC049 M09/M11 A3002 RMK AO2 T10901111
K3N8 142315Z AUTO 33011KT 10SM -SN OVC017 M09/M11 A3003 RMK AO2 T10901111
K3N8 142255Z AUTO 34011KT 10SM OVC015 M09/M11 A3003 RMK AO2 T10881110
K3N8 142235Z AUTO 33013KT 10SM OVC015 M08/M11 A3002 RMK AO2 T10851108
K3N8 142215Z AUTO 32014KT 7SM -SN OVC013 M08/M10 A3002 RMK AO2 T10831103
K3N8 142155Z AUTO 32014G18KT 7SM -SN OVC011 M08/M10 A3002 RMK AO2 T10821101
K3N8 142135Z AUTO 32013KT 5SM -SN OVC011 M08/M10 A3002 RMK AO2 T10831102
K3N8 142115Z AUTO 32014KT 7SM -SN OVC011 M08/M10 A3002 RMK AO2 T10821100
K3N8 142055Z AUTO 32013KT 10SM OVC013 M08/M10 A3002 RMK AO2 T10821102
K3N8 142035Z AUTO 33012KT 10SM -SN OVC013 M08/M10 A3002 RMK AO2 T10811101
K3N8 142015Z AUTO 33013KT 4SM -SN OVC015 M08/M10 A3002 RMK AO2 T10781100
K3N8 141955Z AUTO 33013KT 4SM -SN OVC015 M08/M10 A3002 RMK AO2 T10801102
K3N8 141935Z AUTO 33017G20KT 1 3/4SM -SN OVC013 M08/M10 A3002 RMK AO2 T10781099
K3N8 141915Z AUTO 32015KT 3SM -SN SCT015 OVC021 M08/M10 A3002 RMK AO2 T10781100
K3N8 141855Z AUTO 33019G25KT 1 1/2SM -SN BKN015 OVC020 M08/M10 A3002 RMK AO2 T10761099
K3N8 141835Z AUTO 32016G20KT 5SM -SN BKN013 OVC019 M07/M09 A3003 RMK AO2 T10751094
K3N8 141815Z AUTO 33016KT 4SM -SN OVC013 M07/M09 A3002 RMK AO2 T10751091
K3N8 141755Z AUTO 33014KT 4SM -SN OVC013 M07/M09 A3002 RMK AO2 T10751091 11075 21100
K3N8 141735Z AUTO 33013G18KT 10SM OVC011 M07/M09 A3003 RMK AO2 T10751092
K3N8 141715Z AUTO 33012KT 10SM BKN013 OVC020 M07/M09 A3003 RMK AO2 T10751095
K3N8 141655Z AUTO 31010KT 10SM SCT011 OVC019 M08/M09 A3003 RMK AO2 T10761095
K3N8 141635Z AUTO 32010KT 10SM OVC011 M08/M09 A3003 RMK AO2 T10761094
K3N8 141615Z AUTO 31009KT 10SM -SN BKN011 BKN019 OVC034 M08/M09 A3003 RMK AO2 T10781094
K3N8 141555Z AUTO 30007KT 10SM -SN BKN011 BKN019 OVC090 M08/M09 A3002 RMK AO2 T10811095
K3N8 141535Z AUTO 29008KT 7SM -SN OVC011 M08/M10 A3002 RMK AO2 T10841096
K3N8 141515Z AUTO 28007KT 10SM SCT011 BKN050 OVC095 M09/M10 A3001 RMK AO2 T10861098
K3N8 141455Z AUTO 27005KT 10SM SCT011 BKN050 OVC095 M09/M10 A3000 RMK AO2 T10901101
K3N8 141435Z AUTO 27005KT 10SM SCT011 BKN040 OVC047 M09/M10 A2999 RMK AO2 T10901101
K3N8 141415Z AUTO 28006KT 10SM OVC011 M09/M10 A2999 RMK AO2 T10911103
K3N8 141355Z AUTO 30006KT 10SM OVC009 M09/M10 A2999 RMK AO2 T10911103
K3N8 141335Z AUTO 28007KT 10SM -SN OVC009 M09/M10 A2998 RMK AO2 T10921103
K3N8 141315Z AUTO 28006KT 10SM -SN OVC007 M09/M10 A2998 RMK AO2 T10931105
K3N8 141255Z AUTO 26004KT 10SM OVC007 M09/M10 A2998 RMK AO2 T10951105
K3N8 141235Z AUTO 25005KT 10SM -SN OVC007 M10/M11 A2998 RMK AO2 T10961108
K3N8 141215Z AUTO 23003KT 7SM -SN OVC007 M10/M11 A2997 RMK AO2 T10981110
K3N8 141155Z AUTO 24005KT 10SM -SN OVC007 M10/M11 A2997 RMK AO2 T11001110 11100 21110